sensor_id;sensor_type;location;lat;lon;timestamp;P1;durP1;ratioP1;P2;durP2;ratioP2
30693;SDS011;17446;48.022;-1.740;2022-07-15T00:00:27;8.85;;;3.25;;
30693;SDS011;17446;48.022;-1.740;2022-07-15T00:02:53;7.45;;;2.88;;
30693;SDS011;17446;48.022;-1.740;2022-07-15T00:05:19;9.32;;;3.03;;
30693;SDS011;17446;48.022;-1.740;2022-07-15T00:07:45;9.70;;;3.38;;
30693;SDS011;17446;48.022;-1.740;2022-07-15T00:10:11;10.75;;;3.40;;
30693;SDS011;17446;48.022;-1.740;2022-07-15T00:12:40;8.43;;;2.92;;
30693;SDS011;17446;48.022;-1.740;2022-07-15T00:15:17;17.17;;;3.50;;
30693;SDS011;17446;48.022;-1.740;2022-07-15T00:17:45;6.90;;;2.85;;
30693;SDS011;17446;48.022;-1.740;2022-07-15T00:20:12;9.70;;;3.00;;
30693;SDS011;17446;48.022;-1.740;2022-07-15T00:22:39;11.65;;;2.90;;
30693;SDS011;17446;48.022;-1.740;2022-07-15T00:25:06;14.32;;;3.50;;
30693;SDS011;17446;48.022;-1.740;2022-07-15T00:27:32;12.82;;;3.25;;
30693;SDS011;17446;48.022;-1.740;2022-07-15T00:29:58;16.13;;;3.47;;
30693;SDS011;17446;48.022;-1.740;2022-07-15T00:32:24;11.38;;;3.60;;
30693;SDS011;17446;48.022;-1.740;2022-07-15T00:34:49;14.27;;;3.60;;
30693;SDS011;17446;48.022;-1.740;2022-07-15T00:37:16;8.10;;;3.20;;
30693;SDS011;17446;48.022;-1.740;2022-07-15T00:39:42;14.40;;;3.13;;
30693;SDS011;17446;48.022;-1.740;2022-07-15T00:42:11;5.97;;;2.83;;
30693;SDS011;17446;48.022;-1.740;2022-07-15T00:44:57;6.50;;;3.10;;
30693;SDS011;17446;48.022;-1.740;2022-07-15T00:47:22;6.57;;;3.20;;
30693;SDS011;17446;48.022;-1.740;2022-07-15T00:49:48;8.05;;;2.60;;
30693;SDS011;17446;48.022;-1.740;2022-07-15T00:52:14;9.63;;;3.13;;
30693;SDS011;17446;48.022;-1.740;2022-07-15T00:54:41;3.60;;;2.63;;
30693;SDS011;17446;48.022;-1.740;2022-07-15T00:57:08;8.18;;;3.33;;
30693;SDS011;17446;48.022;-1.740;2022-07-15T00:59:34;9.80;;;3.17;;
30693;SDS011;17446;48.022;-1.740;2022-07-15T01:02:01;10.75;;;3.10;;
30693;SDS011;17446;48.022;-1.740;2022-07-15T01:04:28;8.18;;;3.55;;
30693;SDS011;17446;48.022;-1.740;2022-07-15T01:06:55;10.48;;;3.40;;
30693;SDS011;17446;48.022;-1.740;2022-07-15T01:09:20;7.35;;;3.65;;
30693;SDS011;17446;48.022;-1.740;2022-07-15T01:11:46;11.25;;;4.03;;
30693;SDS011;17446;48.022;-1.740;2022-07-15T01:14:12;8.20;;;3.75;;
30693;SDS011;17446;48.022;-1.740;2022-07-15T01:16:38;7.45;;;3.80;;
30693;SDS011;17446;48.022;-1.740;2022-07-15T01:19:03;14.27;;;3.88;;
30693;SDS011;17446;48.022;-1.740;2022-07-15T01:21:29;13.15;;;4.22;;
30693;SDS011;17446;48.022;-1.740;2022-07-15T01:23:55;8.88;;;3.88;;
30693;SDS011;17446;48.022;-1.740;2022-07-15T01:26:20;12.35;;;3.83;;
30693;SDS011;17446;48.022;-1.740;2022-07-15T01:28:46;10.93;;;4.00;;
30693;SDS011;17446;48.022;-1.740;2022-07-15T01:31:12;13.98;;;3.90;;
30693;SDS011;17446;48.022;-1.740;2022-07-15T01:33:37;9.32;;;3.50;;
30693;SDS011;17446;48.022;-1.740;2022-07-15T01:36:03;11.80;;;3.75;;
30693;SDS011;17446;48.022;-1.740;2022-07-15T01:38:30;11.15;;;4.60;;
30693;SDS011;17446;48.022;-1.740;2022-07-15T01:40:55;5.80;;;4.20;;
30693;SDS011;17446;48.022;-1.740;2022-07-15T01:43:22;10.30;;;3.58;;
30693;SDS011;17446;48.022;-1.740;2022-07-15T01:45:48;13.10;;;4.28;;
30693;SDS011;17446;48.022;-1.740;2022-07-15T01:48:14;11.65;;;4.55;;
30693;SDS011;17446;48.022;-1.740;2022-07-15T01:50:59;8.65;;;3.83;;
30693;SDS011;17446;48.022;-1.740;2022-07-15T01:53:26;10.25;;;3.33;;
30693;SDS011;17446;48.022;-1.740;2022-07-15T01:55:53;11.27;;;3.45;;
30693;SDS011;17446;48.022;-1.740;2022-07-15T01:58:19;12.38;;;4.95;;
30693;SDS011;17446;48.022;-1.740;2022-07-15T02:00:45;12.48;;;3.53;;
30693;SDS011;17446;48.022;-1.740;2022-07-15T02:03:11;6.60;;;3.80;;
30693;SDS011;17446;48.022;-1.740;2022-07-15T02:05:37;13.32;;;3.90;;
30693;SDS011;17446;48.022;-1.740;2022-07-15T02:08:03;9.93;;;4.00;;
30693;SDS011;17446;48.022;-1.740;2022-07-15T02:10:30;11.93;;;4.00;;
30693;SDS011;17446;48.022;-1.740;2022-07-15T02:13:07;8.68;;;3.45;;
30693;SDS011;17446;48.022;-1.740;2022-07-15T02:15:37;9.13;;;4.03;;
30693;SDS011;17446;48.022;-1.740;2022-07-15T02:18:05;11.20;;;4.85;;
30693;SDS011;17446;48.022;-1.740;2022-07-15T02:20:32;9.90;;;3.90;;
30693;SDS011;17446;48.022;-1.740;2022-07-15T02:22:58;10.73;;;3.60;;
30693;SDS011;17446;48.022;-1.740;2022-07-15T02:25:26;11.10;;;3.92;;
30693;SDS011;17446;48.022;-1.740;2022-07-15T02:27:53;10.48;;;4.05;;
30693;SDS011;17446;48.022;-1.740;2022-07-15T02:30:24;12.45;;;4.40;;
30693;SDS011;17446;48.022;-1.740;2022-07-15T02:33:01;10.50;;;3.83;;
30693;SDS011;17446;48.022;-1.740;2022-07-15T02:35:27;19.48;;;4.82;;
30693;SDS011;17446;48.022;-1.740;2022-07-15T02:37:53;16.42;;;4.40;;
30693;SDS011;17446;48.022;-1.740;2022-07-15T02:40:19;9.70;;;3.50;;
30693;SDS011;17446;48.022;-1.740;2022-07-15T02:42:48;6.10;;;3.70;;
30693;SDS011;17446;48.022;-1.740;2022-07-15T02:45:19;11.82;;;4.00;;
30693;SDS011;17446;48.022;-1.740;2022-07-15T02:47:47;12.05;;;4.35;;
30693;SDS011;17446;48.022;-1.740;2022-07-15T02:50:14;11.65;;;4.38;;
30693;SDS011;17446;48.022;-1.740;2022-07-15T02:52:40;8.10;;;4.30;;
30693;SDS011;17446;48.022;-1.740;2022-07-15T02:55:06;9.35;;;4.22;;
30693;SDS011;17446;48.022;-1.740;2022-07-15T02:57:33;10.73;;;3.97;;
30693;SDS011;17446;48.022;-1.740;2022-07-15T02:59:58;9.52;;;4.70;;
30693;SDS011;17446;48.022;-1.740;2022-07-15T03:02:24;11.10;;;3.25;;
30693;SDS011;17446;48.022;-1.740;2022-07-15T03:04:50;9.60;;;3.92;;
30693;SDS011;17446;48.022;-1.740;2022-07-15T03:07:16;9.23;;;4.05;;
30693;SDS011;17446;48.022;-1.740;2022-07-15T03:09:41;7.18;;;3.78;;
30693;SDS011;17446;48.022;-1.740;2022-07-15T03:12:07;11.90;;;4.35;;
30693;SDS011;17446;48.022;-1.740;2022-07-15T03:14:33;11.48;;;3.83;;
30693;SDS011;17446;48.022;-1.740;2022-07-15T03:16:58;8.25;;;3.92;;
30693;SDS011;17446;48.022;-1.740;2022-07-15T03:19:24;6.40;;;3.47;;
30693;SDS011;17446;48.022;-1.740;2022-07-15T03:21:50;11.23;;;4.18;;
30693;SDS011;17446;48.022;-1.740;2022-07-15T03:24:16;11.13;;;4.45;;
30693;SDS011;17446;48.022;-1.740;2022-07-15T03:26:42;8.30;;;4.07;;
30693;SDS011;17446;48.022;-1.740;2022-07-15T03:29:08;17.52;;;4.15;;
30693;SDS011;17446;48.022;-1.740;2022-07-15T03:31:34;12.50;;;4.40;;
30693;SDS011;17446;48.022;-1.740;2022-07-15T03:34:00;14.23;;;4.22;;
30693;SDS011;17446;48.022;-1.740;2022-07-15T03:36:26;9.90;;;4.05;;
30693;SDS011;17446;48.022;-1.740;2022-07-15T03:38:52;9.55;;;4.50;;
30693;SDS011;17446;48.022;-1.740;2022-07-15T03:41:18;16.85;;;4.65;;
30693;SDS011;17446;48.022;-1.740;2022-07-15T03:43:45;13.73;;;4.88;;
30693;SDS011;17446;48.022;-1.740;2022-07-15T03:46:11;10.15;;;4.85;;
30693;SDS011;17446;48.022;-1.740;2022-07-15T03:48:37;6.95;;;4.32;;
30693;SDS011;17446;48.022;-1.740;2022-07-15T03:51:02;8.48;;;4.47;;
30693;SDS011;17446;48.022;-1.740;2022-07-15T03:53:28;9.82;;;4.72;;
30693;SDS011;17446;48.022;-1.740;2022-07-15T03:55:54;9.23;;;4.53;;
30693;SDS011;17446;48.022;-1.740;2022-07-15T03:58:20;10.68;;;4.95;;
30693;SDS011;17446;48.022;-1.740;2022-07-15T04:00:45;10.63;;;5.32;;
30693;SDS011;17446;48.022;-1.740;2022-07-15T04:03:11;11.77;;;5.07;;
30693;SDS011;17446;48.022;-1.740;2022-07-15T04:05:36;10.30;;;4.47;;
30693;SDS011;17446;48.022;-1.740;2022-07-15T04:08:03;11.45;;;4.75;;
30693;SDS011;17446;48.022;-1.740;2022-07-15T04:10:30;12.48;;;5.28;;
30693;SDS011;17446;48.022;-1.740;2022-07-15T04:12:56;8.65;;;4.30;;
30693;SDS011;17446;48.022;-1.740;2022-07-15T04:15:22;13.00;;;5.65;;
30693;SDS011;17446;48.022;-1.740;2022-07-15T04:17:48;11.88;;;5.07;;
30693;SDS011;17446;48.022;-1.740;2022-07-15T04:20:14;12.25;;;4.63;;
30693;SDS011;17446;48.022;-1.740;2022-07-15T04:22:40;10.18;;;4.47;;
30693;SDS011;17446;48.022;-1.740;2022-07-15T04:25:08;15.70;;;5.22;;
30693;SDS011;17446;48.022;-1.740;2022-07-15T04:27:34;11.13;;;4.82;;
30693;SDS011;17446;48.022;-1.740;2022-07-15T04:30:00;12.60;;;5.30;;
30693;SDS011;17446;48.022;-1.740;2022-07-15T04:32:26;9.43;;;4.70;;
30693;SDS011;17446;48.022;-1.740;2022-07-15T04:34:52;9.07;;;4.07;;
30693;SDS011;17446;48.022;-1.740;2022-07-15T04:37:18;12.48;;;4.70;;
30693;SDS011;17446;48.022;-1.740;2022-07-15T04:39:44;13.15;;;4.68;;
30693;SDS011;17446;48.022;-1.740;2022-07-15T04:42:10;7.68;;;4.55;;
30693;SDS011;17446;48.022;-1.740;2022-07-15T04:44:35;12.05;;;4.78;;
30693;SDS011;17446;48.022;-1.740;2022-07-15T04:47:01;10.25;;;4.30;;
30693;SDS011;17446;48.022;-1.740;2022-07-15T04:49:28;9.13;;;4.72;;
30693;SDS011;17446;48.022;-1.740;2022-07-15T04:52:13;11.13;;;5.00;;
30693;SDS011;17446;48.022;-1.740;2022-07-15T04:54:38;13.25;;;5.15;;
30693;SDS011;17446;48.022;-1.740;2022-07-15T04:57:04;11.48;;;4.70;;
30693;SDS011;17446;48.022;-1.740;2022-07-15T04:59:30;8.60;;;4.93;;
30693;SDS011;17446;48.022;-1.740;2022-07-15T05:01:56;8.05;;;5.13;;
30693;SDS011;17446;48.022;-1.740;2022-07-15T05:04:21;12.55;;;4.93;;
30693;SDS011;17446;48.022;-1.740;2022-07-15T05:06:47;15.38;;;4.80;;
30693;SDS011;17446;48.022;-1.740;2022-07-15T05:09:13;14.50;;;4.90;;
30693;SDS011;17446;48.022;-1.740;2022-07-15T05:11:38;11.35;;;4.82;;
30693;SDS011;17446;48.022;-1.740;2022-07-15T05:14:04;16.75;;;5.00;;
30693;SDS011;17446;48.022;-1.740;2022-07-15T05:16:29;7.75;;;4.43;;
30693;SDS011;17446;48.022;-1.740;2022-07-15T05:18:55;12.07;;;5.00;;
30693;SDS011;17446;48.022;-1.740;2022-07-15T05:21:21;13.05;;;5.90;;
30693;SDS011;17446;48.022;-1.740;2022-07-15T05:23:47;12.82;;;5.35;;
30693;SDS011;17446;48.022;-1.740;2022-07-15T05:26:13;12.93;;;5.45;;
30693;SDS011;17446;48.022;-1.740;2022-07-15T05:28:38;10.57;;;4.43;;
30693;SDS011;17446;48.022;-1.740;2022-07-15T05:31:04;12.68;;;5.22;;
30693;SDS011;17446;48.022;-1.740;2022-07-15T05:33:30;15.45;;;4.82;;
30693;SDS011;17446;48.022;-1.740;2022-07-15T05:35:56;13.43;;;5.75;;
30693;SDS011;17446;48.022;-1.740;2022-07-15T05:38:22;9.23;;;4.70;;
30693;SDS011;17446;48.022;-1.740;2022-07-15T05:40:48;7.18;;;4.45;;
30693;SDS011;17446;48.022;-1.740;2022-07-15T05:43:13;8.63;;;4.63;;
30693;SDS011;17446;48.022;-1.740;2022-07-15T05:45:39;9.63;;;5.15;;
30693;SDS011;17446;48.022;-1.740;2022-07-15T05:48:05;9.75;;;4.70;;
30693;SDS011;17446;48.022;-1.740;2022-07-15T05:50:31;10.30;;;5.22;;
30693;SDS011;17446;48.022;-1.740;2022-07-15T05:52:56;12.95;;;5.30;;
30693;SDS011;17446;48.022;-1.740;2022-07-15T05:55:22;9.75;;;4.65;;
30693;SDS011;17446;48.022;-1.740;2022-07-15T05:57:48;9.13;;;5.10;;
30693;SDS011;17446;48.022;-1.740;2022-07-15T06:00:14;12.98;;;6.05;;
30693;SDS011;17446;48.022;-1.740;2022-07-15T06:02:40;9.93;;;5.18;;
30693;SDS011;17446;48.022;-1.740;2022-07-15T06:05:07;11.95;;;4.93;;
30693;SDS011;17446;48.022;-1.740;2022-07-15T06:07:34;12.32;;;5.10;;
30693;SDS011;17446;48.022;-1.740;2022-07-15T06:10:01;11.50;;;5.05;;
30693;SDS011;17446;48.022;-1.740;2022-07-15T06:12:27;7.28;;;5.13;;
30693;SDS011;17446;48.022;-1.740;2022-07-15T06:14:53;19.30;;;5.07;;
30693;SDS011;17446;48.022;-1.740;2022-07-15T06:17:18;10.30;;;4.78;;
30693;SDS011;17446;48.022;-1.740;2022-07-15T06:19:44;12.57;;;5.35;;
30693;SDS011;17446;48.022;-1.740;2022-07-15T06:22:10;13.32;;;5.00;;
30693;SDS011;17446;48.022;-1.740;2022-07-15T06:24:35;11.05;;;4.72;;
30693;SDS011;17446;48.022;-1.740;2022-07-15T06:27:01;9.05;;;4.22;;
30693;SDS011;17446;48.022;-1.740;2022-07-15T06:29:27;10.30;;;4.50;;
30693;SDS011;17446;48.022;-1.740;2022-07-15T06:31:52;12.63;;;5.32;;
30693;SDS011;17446;48.022;-1.740;2022-07-15T06:34:18;13.82;;;4.70;;
30693;SDS011;17446;48.022;-1.740;2022-07-15T06:36:44;12.48;;;4.75;;
30693;SDS011;17446;48.022;-1.740;2022-07-15T06:39:09;13.27;;;4.70;;
30693;SDS011;17446;48.022;-1.740;2022-07-15T06:41:36;12.63;;;4.43;;
30693;SDS011;17446;48.022;-1.740;2022-07-15T06:44:02;13.48;;;3.72;;
30693;SDS011;17446;48.022;-1.740;2022-07-15T06:46:30;9.70;;;4.00;;
30693;SDS011;17446;48.022;-1.740;2022-07-15T06:48:55;9.20;;;4.22;;
30693;SDS011;17446;48.022;-1.740;2022-07-15T06:51:21;9.75;;;4.00;;
30693;SDS011;17446;48.022;-1.740;2022-07-15T06:53:47;9.10;;;4.15;;
30693;SDS011;17446;48.022;-1.740;2022-07-15T06:56:13;7.45;;;3.40;;
30693;SDS011;17446;48.022;-1.740;2022-07-15T06:58:38;9.00;;;3.88;;
30693;SDS011;17446;48.022;-1.740;2022-07-15T07:01:04;13.73;;;3.72;;
30693;SDS011;17446;48.022;-1.740;2022-07-15T07:03:30;10.27;;;3.80;;
30693;SDS011;17446;48.022;-1.740;2022-07-15T07:05:55;12.55;;;3.38;;
30693;SDS011;17446;48.022;-1.740;2022-07-15T07:08:22;8.43;;;3.83;;
30693;SDS011;17446;48.022;-1.740;2022-07-15T07:10:48;15.73;;;3.60;;
30693;SDS011;17446;48.022;-1.740;2022-07-15T07:13:14;8.43;;;2.90;;
30693;SDS011;17446;48.022;-1.740;2022-07-15T07:15:39;11.23;;;3.58;;
30693;SDS011;17446;48.022;-1.740;2022-07-15T07:18:05;10.32;;;3.53;;
30693;SDS011;17446;48.022;-1.740;2022-07-15T07:20:31;7.65;;;2.65;;
30693;SDS011;17446;48.022;-1.740;2022-07-15T07:22:56;8.52;;;3.17;;
30693;SDS011;17446;48.022;-1.740;2022-07-15T07:25:22;5.43;;;2.55;;
30693;SDS011;17446;48.022;-1.740;2022-07-15T07:27:49;5.53;;;2.50;;
30693;SDS011;17446;48.022;-1.740;2022-07-15T07:30:14;10.25;;;2.85;;
30693;SDS011;17446;48.022;-1.740;2022-07-15T07:32:40;4.68;;;2.85;;
30693;SDS011;17446;48.022;-1.740;2022-07-15T07:35:06;5.95;;;2.30;;
30693;SDS011;17446;48.022;-1.740;2022-07-15T07:37:33;7.65;;;2.50;;
30693;SDS011;17446;48.022;-1.740;2022-07-15T07:40:00;6.03;;;2.13;;
30693;SDS011;17446;48.022;-1.740;2022-07-15T07:42:25;8.65;;;1.98;;
30693;SDS011;17446;48.022;-1.740;2022-07-15T07:44:51;4.65;;;2.15;;
30693;SDS011;17446;48.022;-1.740;2022-07-15T07:47:16;6.22;;;2.50;;
30693;SDS011;17446;48.022;-1.740;2022-07-15T07:49:42;5.07;;;1.95;;
30693;SDS011;17446;48.022;-1.740;2022-07-15T07:52:09;3.58;;;1.58;;
30693;SDS011;17446;48.022;-1.740;2022-07-15T07:54:34;4.95;;;2.05;;
30693;SDS011;17446;48.022;-1.740;2022-07-15T07:57:00;8.43;;;2.30;;
30693;SDS011;17446;48.022;-1.740;2022-07-15T07:59:26;3.00;;;1.55;;
30693;SDS011;17446;48.022;-1.740;2022-07-15T08:01:52;4.03;;;1.92;;
30693;SDS011;17446;48.022;-1.740;2022-07-15T08:04:17;6.53;;;1.73;;
30693;SDS011;17446;48.022;-1.740;2022-07-15T08:06:43;8.10;;;2.00;;
30693;SDS011;17446;48.022;-1.740;2022-07-15T08:09:09;5.72;;;1.90;;
30693;SDS011;17446;48.022;-1.740;2022-07-15T08:11:35;8.68;;;2.03;;
30693;SDS011;17446;48.022;-1.740;2022-07-15T08:14:00;5.05;;;1.92;;
30693;SDS011;17446;48.022;-1.740;2022-07-15T08:16:26;4.05;;;1.83;;
30693;SDS011;17446;48.022;-1.740;2022-07-15T08:18:52;5.38;;;1.65;;
30693;SDS011;17446;48.022;-1.740;2022-07-15T08:21:18;3.85;;;1.67;;
30693;SDS011;17446;48.022;-1.740;2022-07-15T08:23:44;8.38;;;1.90;;
30693;SDS011;17446;48.022;-1.740;2022-07-15T08:26:09;3.50;;;1.50;;
30693;SDS011;17446;48.022;-1.740;2022-07-15T08:28:36;2.72;;;1.65;;
30693;SDS011;17446;48.022;-1.740;2022-07-15T08:31:02;6.13;;;1.27;;
30693;SDS011;17446;48.022;-1.740;2022-07-15T08:33:27;4.55;;;1.58;;
30693;SDS011;17446;48.022;-1.740;2022-07-15T08:35:53;6.30;;;2.30;;
30693;SDS011;17446;48.022;-1.740;2022-07-15T08:38:20;2.67;;;1.50;;
30693;SDS011;17446;48.022;-1.740;2022-07-15T08:40:45;3.97;;;1.50;;
30693;SDS011;17446;48.022;-1.740;2022-07-15T08:43:11;7.22;;;1.67;;
30693;SDS011;17446;48.022;-1.740;2022-07-15T08:45:38;4.90;;;2.67;;
30693;SDS011;17446;48.022;-1.740;2022-07-15T08:48:07;4.85;;;1.70;;
30693;SDS011;17446;48.022;-1.740;2022-07-15T08:50:34;3.03;;;1.90;;
30693;SDS011;17446;48.022;-1.740;2022-07-15T08:53:00;5.03;;;1.52;;
30693;SDS011;17446;48.022;-1.740;2022-07-15T08:55:26;5.85;;;1.70;;
30693;SDS011;17446;48.022;-1.740;2022-07-15T08:57:52;3.33;;;1.38;;
30693;SDS011;17446;48.022;-1.740;2022-07-15T09:00:19;6.60;;;1.52;;
30693;SDS011;17446;48.022;-1.740;2022-07-15T09:02:48;4.88;;;1.60;;
30693;SDS011;17446;48.022;-1.740;2022-07-15T09:07:59;7.65;;;1.77;;
30693;SDS011;17446;48.022;-1.740;2022-07-15T09:15:48;7.72;;;1.60;;
30693;SDS011;17446;48.022;-1.740;2022-07-15T09:18:16;14.35;;;1.80;;
30693;SDS011;17446;48.022;-1.740;2022-07-15T09:20:43;5.60;;;1.60;;
30693;SDS011;17446;48.022;-1.740;2022-07-15T09:23:10;2.95;;;1.33;;
30693;SDS011;17446;48.022;-1.740;2022-07-15T09:25:41;3.92;;;1.40;;
30693;SDS011;17446;48.022;-1.740;2022-07-15T09:28:07;4.28;;;1.60;;
30693;SDS011;17446;48.022;-1.740;2022-07-15T09:30:34;6.32;;;1.80;;
30693;SDS011;17446;48.022;-1.740;2022-07-15T09:33:22;4.93;;;1.60;;
30693;SDS011;17446;48.022;-1.740;2022-07-15T09:36:19;5.93;;;1.45;;
30693;SDS011;17446;48.022;-1.740;2022-07-15T09:41:31;2.55;;;1.60;;
30693;SDS011;17446;48.022;-1.740;2022-07-15T09:47:15;3.33;;;1.52;;
30693;SDS011;17446;48.022;-1.740;2022-07-15T09:54:30;3.97;;;1.48;;
30693;SDS011;17446;48.022;-1.740;2022-07-15T09:56:59;3.17;;;1.50;;
30693;SDS011;17446;48.022;-1.740;2022-07-15T09:59:26;4.25;;;2.00;;
30693;SDS011;17446;48.022;-1.740;2022-07-15T10:01:54;7.00;;;2.00;;
30693;SDS011;17446;48.022;-1.740;2022-07-15T10:04:22;2.58;;;1.98;;
30693;SDS011;17446;48.022;-1.740;2022-07-15T10:06:49;3.97;;;1.63;;
30693;SDS011;17446;48.022;-1.740;2022-07-15T10:09:24;2.47;;;1.63;;
30693;SDS011;17446;48.022;-1.740;2022-07-15T10:11:53;5.43;;;2.03;;
30693;SDS011;17446;48.022;-1.740;2022-07-15T10:20:42;3.90;;;2.45;;
30693;SDS011;17446;48.022;-1.740;2022-07-15T10:26:10;2.55;;;1.45;;
30693;SDS011;17446;48.022;-1.740;2022-07-15T10:29:02;4.40;;;1.48;;
30693;SDS011;17446;48.022;-1.740;2022-07-15T10:31:30;3.22;;;1.40;;
30693;SDS011;17446;48.022;-1.740;2022-07-15T10:39:12;4.90;;;1.80;;
30693;SDS011;17446;48.022;-1.740;2022-07-15T10:41:57;3.30;;;1.67;;
30693;SDS011;17446;48.022;-1.740;2022-07-15T10:44:31;2.38;;;1.80;;
30693;SDS011;17446;48.022;-1.740;2022-07-15T10:47:17;1.90;;;1.50;;
30693;SDS011;17446;48.022;-1.740;2022-07-15T10:49:48;4.03;;;1.63;;
30693;SDS011;17446;48.022;-1.740;2022-07-15T10:57:19;3.35;;;1.85;;
30693;SDS011;17446;48.022;-1.740;2022-07-15T10:59:50;4.55;;;1.67;;
30693;SDS011;17446;48.022;-1.740;2022-07-15T11:02:21;5.28;;;1.63;;
30693;SDS011;17446;48.022;-1.740;2022-07-15T11:04:48;3.10;;;1.65;;
30693;SDS011;17446;48.022;-1.740;2022-07-15T11:20:04;5.15;;;1.55;;
30693;SDS011;17446;48.022;-1.740;2022-07-15T11:22:44;4.10;;;1.67;;
30693;SDS011;17446;48.022;-1.740;2022-07-15T11:25:16;3.38;;;1.60;;
30693;SDS011;17446;48.022;-1.740;2022-07-15T11:27:57;2.55;;;1.55;;
30693;SDS011;17446;48.022;-1.740;2022-07-15T11:30:29;4.35;;;1.77;;
30693;SDS011;17446;48.022;-1.740;2022-07-15T11:32:58;3.00;;;1.77;;
30693;SDS011;17446;48.022;-1.740;2022-07-15T11:35:26;3.50;;;1.80;;
30693;SDS011;17446;48.022;-1.740;2022-07-15T11:38:00;3.85;;;1.75;;
30693;SDS011;17446;48.022;-1.740;2022-07-15T11:40:28;2.20;;;1.80;;
30693;SDS011;17446;48.022;-1.740;2022-07-15T11:43:18;9.18;;;2.30;;
30693;SDS011;17446;48.022;-1.740;2022-07-15T11:46:04;2.63;;;1.40;;
30693;SDS011;17446;48.022;-1.740;2022-07-15T11:48:37;5.43;;;1.90;;
30693;SDS011;17446;48.022;-1.740;2022-07-15T11:53:43;9.88;;;2.15;;
30693;SDS011;17446;48.022;-1.740;2022-07-15T11:56:11;2.75;;;1.70;;
30693;SDS011;17446;48.022;-1.740;2022-07-15T11:58:39;5.95;;;2.00;;
30693;SDS011;17446;48.022;-1.740;2022-07-15T12:01:09;7.45;;;2.10;;
30693;SDS011;17446;48.022;-1.740;2022-07-15T12:08:49;2.97;;;1.85;;
30693;SDS011;17446;48.022;-1.740;2022-07-15T12:11:26;3.78;;;1.90;;
30693;SDS011;17446;48.022;-1.740;2022-07-15T12:19:18;6.30;;;2.15;;
30693;SDS011;17446;48.022;-1.740;2022-07-15T12:21:47;7.00;;;1.98;;
30693;SDS011;17446;48.022;-1.740;2022-07-15T12:24:15;4.07;;;2.10;;
30693;SDS011;17446;48.022;-1.740;2022-07-15T12:29:20;5.15;;;2.30;;
30693;SDS011;17446;48.022;-1.740;2022-07-15T12:31:51;3.60;;;1.95;;
30693;SDS011;17446;48.022;-1.740;2022-07-15T12:34:18;8.55;;;1.90;;
30693;SDS011;17446;48.022;-1.740;2022-07-15T12:36:54;4.40;;;2.17;;
30693;SDS011;17446;48.022;-1.740;2022-07-15T12:39:20;2.70;;;1.88;;
30693;SDS011;17446;48.022;-1.740;2022-07-15T12:42:02;4.13;;;2.17;;
30693;SDS011;17446;48.022;-1.740;2022-07-15T12:44:29;6.55;;;1.90;;
30693;SDS011;17446;48.022;-1.740;2022-07-15T12:47:00;5.95;;;2.47;;
30693;SDS011;17446;48.022;-1.740;2022-07-15T12:49:51;3.88;;;1.92;;
30693;SDS011;17446;48.022;-1.740;2022-07-15T12:54:55;3.35;;;2.05;;
30693;SDS011;17446;48.022;-1.740;2022-07-15T12:57:22;4.15;;;2.30;;
30693;SDS011;17446;48.022;-1.740;2022-07-15T12:59:57;5.85;;;2.13;;
30693;SDS011;17446;48.022;-1.740;2022-07-15T13:02:31;7.40;;;2.35;;
30693;SDS011;17446;48.022;-1.740;2022-07-15T13:04:57;3.58;;;2.28;;
30693;SDS011;17446;48.022;-1.740;2022-07-15T13:07:23;3.60;;;2.15;;
30693;SDS011;17446;48.022;-1.740;2022-07-15T13:09:49;3.83;;;2.25;;
30693;SDS011;17446;48.022;-1.740;2022-07-15T13:12:15;2.38;;;2.00;;
30693;SDS011;17446;48.022;-1.740;2022-07-15T13:14:41;3.03;;;2.22;;
30693;SDS011;17446;48.022;-1.740;2022-07-15T13:17:08;3.88;;;2.20;;
30693;SDS011;17446;48.022;-1.740;2022-07-15T13:19:33;5.43;;;2.10;;
30693;SDS011;17446;48.022;-1.740;2022-07-15T13:22:00;7.80;;;1.98;;
30693;SDS011;17446;48.022;-1.740;2022-07-15T13:24:26;3.13;;;2.33;;
30693;SDS011;17446;48.022;-1.740;2022-07-15T13:26:52;6.15;;;2.20;;
30693;SDS011;17446;48.022;-1.740;2022-07-15T13:29:18;2.10;;;1.70;;
30693;SDS011;17446;48.022;-1.740;2022-07-15T13:31:44;8.20;;;2.35;;
30693;SDS011;17446;48.022;-1.740;2022-07-15T13:34:09;6.30;;;2.10;;
30693;SDS011;17446;48.022;-1.740;2022-07-15T13:36:35;3.67;;;2.08;;
30693;SDS011;17446;48.022;-1.740;2022-07-15T13:39:01;2.75;;;2.05;;
30693;SDS011;17446;48.022;-1.740;2022-07-15T13:41:27;3.42;;;2.08;;
30693;SDS011;17446;48.022;-1.740;2022-07-15T13:43:53;4.38;;;2.25;;
30693;SDS011;17446;48.022;-1.740;2022-07-15T13:46:19;2.95;;;1.88;;
30693;SDS011;17446;48.022;-1.740;2022-07-15T13:48:44;4.75;;;1.67;;
30693;SDS011;17446;48.022;-1.740;2022-07-15T13:51:10;4.97;;;2.05;;
30693;SDS011;17446;48.022;-1.740;2022-07-15T13:53:48;2.20;;;1.85;;
30693;SDS011;17446;48.022;-1.740;2022-07-15T13:56:15;5.20;;;2.28;;
30693;SDS011;17446;48.022;-1.740;2022-07-15T13:58:41;2.97;;;1.90;;
30693;SDS011;17446;48.022;-1.740;2022-07-15T14:01:07;4.93;;;2.30;;
30693;SDS011;17446;48.022;-1.740;2022-07-15T14:03:32;4.45;;;2.45;;
30693;SDS011;17446;48.022;-1.740;2022-07-15T14:05:58;4.68;;;1.85;;
30693;SDS011;17446;48.022;-1.740;2022-07-15T14:08:24;2.47;;;1.83;;
30693;SDS011;17446;48.022;-1.740;2022-07-15T14:10:49;5.50;;;1.95;;
30693;SDS011;17446;48.022;-1.740;2022-07-15T14:13:15;4.05;;;2.25;;
30693;SDS011;17446;48.022;-1.740;2022-07-15T14:15:41;2.17;;;1.90;;
30693;SDS011;17446;48.022;-1.740;2022-07-15T14:18:07;6.22;;;1.98;;
30693;SDS011;17446;48.022;-1.740;2022-07-15T14:20:32;5.95;;;2.15;;
30693;SDS011;17446;48.022;-1.740;2022-07-15T14:22:59;4.40;;;2.38;;
30693;SDS011;17446;48.022;-1.740;2022-07-15T14:25:25;2.90;;;1.75;;
30693;SDS011;17446;48.022;-1.740;2022-07-15T14:27:51;11.43;;;2.20;;
30693;SDS011;17446;48.022;-1.740;2022-07-15T14:30:17;4.00;;;2.20;;
30693;SDS011;17446;48.022;-1.740;2022-07-15T14:32:43;4.15;;;1.80;;
30693;SDS011;17446;48.022;-1.740;2022-07-15T14:35:09;5.25;;;2.00;;
30693;SDS011;17446;48.022;-1.740;2022-07-15T14:37:34;4.47;;;1.98;;
30693;SDS011;17446;48.022;-1.740;2022-07-15T14:40:01;2.67;;;1.77;;
30693;SDS011;17446;48.022;-1.740;2022-07-15T14:42:28;2.15;;;1.65;;
30693;SDS011;17446;48.022;-1.740;2022-07-15T14:44:54;3.75;;;2.33;;
30693;SDS011;17446;48.022;-1.740;2022-07-15T14:47:20;5.28;;;2.13;;
30693;SDS011;17446;48.022;-1.740;2022-07-15T14:49:45;4.95;;;1.92;;
30693;SDS011;17446;48.022;-1.740;2022-07-15T14:52:11;4.38;;;1.77;;
30693;SDS011;17446;48.022;-1.740;2022-07-15T14:54:37;4.57;;;1.92;;
30693;SDS011;17446;48.022;-1.740;2022-07-15T14:57:02;4.40;;;1.63;;
30693;SDS011;17446;48.022;-1.740;2022-07-15T14:59:28;3.33;;;1.90;;
30693;SDS011;17446;48.022;-1.740;2022-07-15T15:01:54;4.03;;;1.98;;
30693;SDS011;17446;48.022;-1.740;2022-07-15T15:04:19;8.80;;;2.65;;
30693;SDS011;17446;48.022;-1.740;2022-07-15T15:06:45;4.22;;;2.30;;
30693;SDS011;17446;48.022;-1.740;2022-07-15T15:09:11;4.20;;;1.90;;
30693;SDS011;17446;48.022;-1.740;2022-07-15T15:11:37;2.03;;;1.63;;
30693;SDS011;17446;48.022;-1.740;2022-07-15T15:14:02;5.13;;;1.88;;
30693;SDS011;17446;48.022;-1.740;2022-07-15T15:16:29;4.18;;;2.13;;
30693;SDS011;17446;48.022;-1.740;2022-07-15T15:18:55;4.35;;;2.30;;
30693;SDS011;17446;48.022;-1.740;2022-07-15T15:21:20;3.38;;;2.08;;
30693;SDS011;17446;48.022;-1.740;2022-07-15T15:23:46;6.50;;;1.73;;
30693;SDS011;17446;48.022;-1.740;2022-07-15T15:26:12;5.03;;;1.85;;
30693;SDS011;17446;48.022;-1.740;2022-07-15T15:28:47;5.07;;;2.40;;
30693;SDS011;17446;48.022;-1.740;2022-07-15T15:31:17;2.92;;;1.92;;
30693;SDS011;17446;48.022;-1.740;2022-07-15T15:33:43;4.43;;;1.25;;
30693;SDS011;17446;48.022;-1.740;2022-07-15T15:36:08;4.85;;;2.20;;
30693;SDS011;17446;48.022;-1.740;2022-07-15T15:38:34;4.65;;;1.83;;
30693;SDS011;17446;48.022;-1.740;2022-07-15T15:41:00;3.65;;;1.52;;